Rainbow Lake, New York
Current Conditions -  °F | °C
As of 11:51 PM on Sunday 19 Oct 2014 (Local Time) from KSLK Reporting Station
Light Snow Light Snow  
Wind Chill: 22°   Ceiling: Unl
Heat Index: 27°   Visibility: 10mi
Dew Point: 23°   Wind: 5mph
Humidity: 85%   Direction: 220°SW
Pressure: 29.94"   Gusts: NA
Location:  44.47°N, 74.17°W
Report Text: KSLK 200351Z AUTO 22004KT 10SM -SN CLR M03/M05 A2994 RMK AO2 SLP156 P0000 T10281050
Loading
Personal Weather Stations






























Interactive Weather Map
Tropical Storm Tracking
New forecast layout! Learn more

10-Day Weather Forecast

Advertisements
Track Severe Weather on mobile